Sitiveni Tuyaga

Recruteur - Nadroga
20 Janv 2028
Jeudi
Processus

Personnalité

Adaptabilité (4) Ambition (1) Controverse (20) Loyauté (12) Pression (12) Professionnalisme (6) Sportivité (2) Tempérament (4)

Profil

Style d'entraînement Démocratique
Diplôme Continental A
Détermination 2
Gestion des joueurs 7
Motivation 7
Discipline 1
Satisfaction professionnelle
100%
Fatigue
0%
Rôle Recruteur
Salaire 23.9K p/s
Contrat 14.03.2030

Performance

Comportement Bon
Efficacité de l'entraînement
11%
Développement des joueurs
15%
Prévention des blessures
35%
Mise en place tactique
5%

Événements récents

En formation continue maintenant
A évalué un joueur maintenant
A participé à une réunion de recrutement maintenant
A évalué un joueur 7j
A participé à une réunion de recrutement 7j
En formation continue 7j
En formation continue 7j
A évalué un joueur 14j

Suivi en cours

246
Joueur Club Statut Capacité Confiance Observé Dernière observation Dernier vote
Tevita Waranaivalu Rewa Actif 55 / 59 40% 3 17.01.2028 -
Darold Kakasi Ba Actif 55 / 68 40% 1 17.01.2028 -
Ali Mekawir Navua Actif 82 / 61 40% 2 10.01.2028 -
Nūraidar Äskerbek Taraz Actif 71 / 58 40% 6 10.01.2028 -
Qobylandy Kamariden Okzhetpes Actif 74 / 83 40% 8 07.01.2028 -
Abdul Mumini Salifu Rewa Actif 60 / 53 40% 2 07.01.2028 -
James Hilton Macarthur FC Actif 90 / 93 40% 2 07.01.2028 -
Bobomurod Bozorov Qizilqum Actif 79 / 85 40% 8 07.01.2028 -
Marcus Kouam Auckland FC Actif 71 / 79 40% 2 07.01.2028 -
Marco Fenton Waitakere United Actif 67 / 54 40% 1 07.01.2028 -
Abdelrahman Sherif Wellington Phoenix Actif 72 / 67 40% 2 04.01.2028 -
Gus Hoefsloot Sydney FC Actif 86 / 90 40% 1 04.01.2028 -
Nadeo Argawinata Persija Actif 74 / 90 40% 2 03.01.2028 -
Gabriel Salguero Rewa Actif 86 / 92 40% 1 03.01.2028 -
George Plusnin Brisbane Roar Actif 66 / 83 40% 2 02.01.2028 -
Akeimi Ralulu Labasa Actif 67 / 56 40% 4 01.01.2028 -
Ryan Smith Southern United Actif 74 / 69 40% 5 01.01.2028 -
Ellis Spikner Hapoel Acre Actif 64 / 62 40% 3 01.01.2028 -
Kolinio Kumar Lautoka Actif 58 / 53 55% 1 01.01.2028 -
Wahyu Agong Semen Padang Actif 58 / 82 40% 3 31.12.2027 -
Gavin Kwan Adsit Borneo Actif 90 / 74 40% 3 31.12.2027 -
Alejandro Cárdenas Wellington Phoenix Actif 70 / 82 40% 2 29.12.2027 -
Septian Bagaskara Persis Actif 80 / 83 40% 1 29.12.2027 -
Sahar Hershkovich Bnei Yehuda Actif 77 / 88 40% 5 28.12.2027 -
Isroiljon Tursunboyev Shortan Actif 88 / 77 40% 4 28.12.2027 -
Jayus Hariyono Arema Actif 86 / 70 40% 2 27.12.2027 -
Imo Obot Maccabi Netanya Actif 91 / 77 40% 2 27.12.2027 -
Adam Lee Southern United Actif 56 / 67 40% 1 27.12.2027 -
Guy Bar Hapoel Tel Aviv Actif 86 / 88 40% 1 27.12.2027 -
Maximiliano Cruz Albirex Niigata Actif 69 / 64 40% 1 25.12.2027 -
Marko Živanović Zhetysu Actif 83 / 67 40% 3 23.12.2027 -
Charles Agbawodikeizu Macarthur FC Actif 78 / 88 40% 2 23.12.2027 -
Aporosa Yada Labasa Actif 76 / 68 40% 7 22.12.2027 -
Hokky Caraka Persita Actif 58 / 55 40% 3 22.12.2027 -
Yuda Editya Madura United Actif 64 / 76 40% 6 21.12.2027 -
Cahya Supriadi PSBS Biak Actif 70 / 63 40% 3 19.12.2027 -
Miswar Saputra Madura United Actif 89 / 78 40% 2 18.12.2027 -
Xavier Stella Kairat Actif 60 / 85 40% 2 18.12.2027 -
Josh Damevski Lautoka Actif 68 / 64 40% 4 18.12.2027 -
Azat Abiken Akzhaiyk Actif 64 / 77 40% 5 15.12.2027 -
Nkosinathi Nyide Ba Actif 71 / 80 40% 5 13.12.2027 -
Frets Butuan Maluku Utara United Actif 86 / 78 40% 13 13.12.2027 -
Leon Kofana Rewa Actif 75 / 71 40% 1 13.12.2027 -
Mohammad Khanafi Persik Actif 60 / 85 40% 2 11.12.2027 -
Oscar Page Brisbane Roar Actif 71 / 74 40% 4 10.12.2027 -
Jai Bell Hawke's Bay United Actif 44 / 63 40% 1 10.12.2027 -
Baurzhan Islamkhan Akzhaiyk Actif 79 / 88 40% 3 09.12.2027 -
Chris Just Canterbury United Actif 47 / 68 40% 1 09.12.2027 -
Bonphas Munyasa Persebaya Actif 95 / 90 40% 2 07.12.2027 -
Nhlonipho Mtshali Waitakere United Actif 87 / 72 40% 1 07.12.2027 -
Zane Helweh Macarthur FC Actif 84 / 93 40% 19 06.12.2027 -
Angus Kilkolly Auckland City Actif 94 / 98 40% 10 06.12.2027 -
Shivam Shandil Nasinu Actif 70 / 62 40% 2 04.12.2027 -
Azizbek Abdumajidov Nasinu Actif 58 / 67 40% 2 04.12.2027 -
Kamronbek Hamroyev Mashal Actif 87 / 78 40% 2 01.12.2027 -
Yoav Dejaldeti Bnei Yehuda Actif 62 / 89 40% 2 01.12.2027 -
Kayne Razmovski Ba Refusé 73 / 75 40% 5 29.11.2027 Refuser
Sūltan Būsyrmanov Ordabasy Actif 76 / 96 40% 5 29.11.2027 -
Fredyan Wahyu Maluku Utara United Actif 62 / 85 40% 2 29.11.2027 -
Igor' Trofimets Aktobe Actif 102 / 85 40% 1 29.11.2027 -
Theo Numberi Dewa United Actif 61 / 70 40% 4 26.11.2027 -
Jasur Ismailov Obod Actif 61 / 62 40% 2 26.11.2027 -
Monwabisi Mwondla Aktobe Actif 81 / 59 40% 1 25.11.2027 -
Sitiveni Rakai Labasa Actif 72 / 58 40% 2 24.11.2027 -
Ali Al-Yammahi Semen Padang Actif 81 / 86 40% 1 23.11.2027 -
Mohammed Alam Lautoka Actif 51 / 62 40% 1 21.11.2027 -
Sanzhar Kemelbek Taraz Refusé 85 / 81 40% 2 20.11.2027 Plus d'infos
Vincent Sithole Lautoka Actif 77 / 82 40% 2 19.11.2027 -
Ricki Ariansyah Semen Padang Actif 85 / 78 40% 1 19.11.2027 -
Lucas Abarca Ba Actif 85 / 92 40% 1 18.11.2027 -
Gil Barda Hapoel Raanana Actif 66 / 60 40% 1 17.11.2027 -
Godwin Akpobolouka Brisbane Roar Actif 75 / 68 40% 1 17.11.2027 -
Vladimir Vomenko Okzhetpes Actif 84 / 98 40% 2 16.11.2027 -
G'iyosjon Rizaqulov Qizilqum Actif 81 / 82 40% 1 16.11.2027 -
Tuiba Batiratu Nadi Actif 48 / 57 40% 7 13.11.2027 -
Dimas Drajad Persib Actif 68 / 89 40% 1 13.11.2027 -
Sūltan Shymyrkhan Shakhter Actif 74 / 72 40% 10 12.11.2027 -
Alex Garbett Southern United Actif 80 / 67 40% 5 12.11.2027 -
Ben van Dorssen Rewa Actif 71 / 59 40% 4 11.11.2027 -
Siyabonga Mkhize Lautoka Actif 75 / 68 40% 3 11.11.2027 -
Atonio Tuivuna Lautoka Actif 51 / 62 40% 4 10.11.2027 -
Joela Biuvanua Lautoka Actif 51 / 68 40% 1 10.11.2027 -
Areya Prasad Auckland City Actif 56 / 75 40% 1 10.11.2027 -
Lucas Díaz Omiya Ardija Actif 91 / 74 40% 1 10.11.2027 -
Yusuf Meilana Persik Actif 76 / 86 40% 2 08.11.2027 -
Nicholas Pennington Perth Glory Actif 98 / 116 40% 1 08.11.2027 -
Musa Magagula Melbourne Victory Actif 78 / 86 40% 1 07.11.2027 -
Kazuaki Suganuma Maccabi Petach Tikva Actif 69 / 78 40% 1 07.11.2027 -
O'ktamjon Abdumalikov Kokand 1912 Actif 69 / 74 40% 1 06.11.2027 -
Samuel Navoce Labasa Actif 61 / 65 40% 3 05.11.2027 -
Sekove Naivakananumi Labasa Actif 50 / 64 40% 2 02.11.2027 -
Andrew Zamorano Rewa Actif 81 / 92 40% 10 31.10.2027 -
Jai Payne Waitakere United Actif 85 / 84 40% 2 31.10.2027 -
Syahrul Trisna Persijap Actif 62 / 89 40% 1 31.10.2027 -
Harrison Devenish-Meares Western Sydney Wanderers Actif 95 / 107 40% 1 31.10.2027 -
Abhishek Deo Tailevu Naitasiri Actif 50 / 68 40% 1 29.10.2027 -
Danil Podymskii Zhetysu Actif 78 / 85 40% 1 28.10.2027 -
Regont Murati Auckland City Actif 78 / 81 40% 3 24.10.2027 -
Deklan Reid Hawke's Bay United Actif 47 / 50 40% 1 24.10.2027 -
Muhammad Ardiansyah PSM Actif 60 / 63 40% 1 24.10.2027 -
Dayron Mosquera Hapoel Tel Aviv Actif 96 / 97 40% 1 24.10.2027 -
Solomon Onyedikachi Nasinu Actif 62 / 76 40% 3 19.10.2027 -
Abraham Faruk Nasinu Actif 50 / 55 40% 1 19.10.2027 -
Sam Singh WaiBOP United Actif 77 / 77 40% 2 18.10.2027 -
Sheva Sanggasi Persijap Actif 42 / 52 40% 2 18.10.2027 -
Franck Kombobilo Macarthur FC Actif 63 / 67 40% 1 18.10.2027 -
Zach Lisolajski Jubilo Iwata Actif 97 / 105 40% 1 18.10.2027 -
Richard Monday Ubong Vissel Kobe Actif 62 / 68 40% 1 16.10.2027 -
Toshikazu Teruuchi Urawa Reds Actif 62 / 72 40% 3 15.10.2027 -
Jesús Lara Jubilo Iwata Actif 80 / 62 40% 4 15.10.2027 -
Oliver Lewis Waitakere United Actif 77 / 67 40% 1 15.10.2027 -
Owen Colvey WaiBOP United Actif 60 / 61 40% 4 14.10.2027 -
Simione Nabenu Suva Actif 61 / 51 40% 2 13.10.2027 -
Yamato Naito Ventforet Kofu Actif 85 / 88 40% 10 10.10.2027 -
Ryan Kurnia Bhayangkara Presisi Actif 78 / 80 40% 4 10.10.2027 -
Alfan Suaib Nadi Actif 49 / 55 40% 1 10.10.2027 -
Isikeli Sevanaia Rewa Actif 53 / 52 40% 2 09.10.2027 -
Askhat Nuserbayev Akzhaiyk Actif 80 / 75 40% 1 08.10.2027 -
Benjamin Machini Hapoel Kfar Saba Actif 64 / 84 40% 1 08.10.2027 -
Alfie Rogers Astana Actif 80 / 65 40% 1 06.10.2027 -
Bogdan Odinayev Bunyodkor Actif 60 / 67 40% 1 04.10.2027 -
Le Keun Hyeong Kawasaki Frontale Actif 90 / 93 40% 1 04.10.2027 -
Malual Nichola Adelaide United Actif 74 / 85 40% 1 04.10.2027 -
Filipe Baravilala Navua Actif 68 / 66 40% 1 30.09.2027 -
Chris Van Hattum Hawke's Bay United Actif 51 / 56 40% 2 28.09.2027 -
Wonderson Yakubu Hapoel Raanana Actif 68 / 100 40% 7 27.09.2027 -
Riley Foxe Perth Glory Actif 100 / 105 40% 5 26.09.2027 -
Noah McCann Central Coast Mariners Actif 76 / 74 40% 5 25.09.2027 -
Hojiakbar Mamurov Mashal Actif 59 / 75 40% 2 25.09.2027 -
Peter Antoniou Auckland FC Actif 68 / 79 40% 1 21.09.2027 -
Asaeli Tunidau Tailevu Naitasiri Actif 64 / 62 40% 2 20.09.2027 -
Liberato Garbett Canterbury United Actif 70 / 79 40% 1 20.09.2027 -
Bayanda Zulu Aktobe Actif 82 / 68 40% 1 20.09.2027 -
Misiwani Nairube Ba Actif 62 / 45 40% 1 15.09.2027 -
Etonia Dogalau Ba Actif 60 / 67 40% 12 12.09.2027 -
Ryan Reid Hawke's Bay United Actif 74 / 64 40% 5 12.09.2027 -
Will McKay Macarthur FC Actif 73 / 84 40% 3 08.09.2027 -
G'anisher Qodirov Shortan Actif 73 / 87 40% 10 08.09.2027 -
Ravikash Krishna Tailevu Naitasiri Actif 49 / 56 40% 2 08.09.2027 -
Harlan Suardi PSIM Actif 76 / 82 40% 2 07.09.2027 -
Khairul Fikri Bali United Actif 51 / 73 40% 1 07.09.2027 -
Eldor Adhamov Andijon Actif 96 / 85 40% 4 05.09.2027 -
Ambrose Sifuna Akzhaiyk Actif 58 / 84 40% 1 01.09.2027 -
Rocky Junior Nadi Actif 59 / 64 40% 1 31.08.2027 -
Mathias MacAllister Sydney FC Actif 61 / 75 40% 1 28.08.2027 -
Chris Boxall Southern United Actif 66 / 63 40% 1 25.08.2027 -
Saar Schwartz Hapoel Acre Actif 53 / 77 40% 1 20.08.2027 -
Daniel Atlan Maccabi Netanya Actif 67 / 66 40% 6 14.08.2027 -
Hamad Ahmed Taraz Actif 51 / 69 40% 2 06.08.2027 -
Miraziz Mahamadaliyev Andijon Actif 71 / 79 40% 7 02.08.2027 -
Dzaky Asraf Suva Actif 65 / 75 40% 2 31.07.2027 -
Joe Lacey Sydney FC Actif 71 / 69 40% 2 19.07.2027 -
Iran Madura United Actif 91 / 90 40% 1 19.07.2027 -
Lachlin Lambert Auckland FC Actif 59 / 77 40% 1 17.07.2027 -
Patrick Joseph Ba Actif 75 / 58 40% 1 12.07.2027 -
Albert Nurullayev Bukhara Actif 56 / 57 40% 7 08.07.2027 -
Takumi Yasuno Vegalta Sendai Actif 65 / 73 40% 7 04.07.2027 -
Hafizh Rizkianur Persija Actif 42 / 44 40% 1 30.06.2027 -
Abzal Islamkhan Akzhaiyk Actif 58 / 64 40% 1 26.06.2027 -
Sibusiso Tau Zhetysu Actif 70 / 58 40% 1 21.06.2027 -
Muhammadjon Toirjonov Suva Actif 67 / 57 40% 1 17.06.2027 -
Jens Raven Bali United Actif 70 / 82 40% 2 08.06.2027 -
Diky Indrayana Madura United Actif 71 / 64 40% 1 07.06.2027 -
Mardonjon Meliyev Bukhara Actif 53 / 46 40% 1 07.06.2027 -
Anthony Didulica Perth Glory Actif 73 / 90 40% 1 03.06.2027 -
Maleli Bari Rewa Actif 55 / 48 55% 1 02.06.2027 -
Farhod Fayzullaev Obod Actif 43 / 57 40% 1 31.05.2027 -
Ryan Kalms Melbourne City Actif 78 / 80 40% 2 30.05.2027 -
Gabriele Matanisiga Rewa Actif 69 / 74 40% 1 28.05.2027 -
Lucas Scicluna Perth Glory Actif 78 / 78 40% 4 24.05.2027 -
Joeli Ranitu Suva Actif 69 / 49 40% 2 20.05.2027 -
Sotiri Phillis Adelaide United Actif 87 / 102 40% 2 18.05.2027 -
Sitiveni Cavuilagi Lautoka Actif 64 / 60 40% 2 17.05.2027 -
Vinal Prasad Navua Actif 46 / 50 40% 2 15.05.2027 -
Naftali Balay Akzhaiyk Actif 87 / 96 40% 2 11.05.2027 -
Tim Tuiloma Canterbury United Actif 65 / 75 40% 4 09.05.2027 -
Kolinio Sivoki Navua Actif 58 / 47 40% 1 09.05.2027 -
Arami Manumanubhai Navua Actif 51 / 62 40% 1 04.05.2027 -
Riley Dalziell Auckland FC Actif 82 / 82 40% 1 29.04.2027 -
Benjamín Rojas Western Sydney Wanderers Actif 66 / 67 40% 2 27.04.2027 -
Bailey O'Neil Adelaide United Actif 77 / 98 40% 2 21.04.2027 -
Ryan Kitto Adelaide United Actif 107 / 95 40% 3 13.04.2027 -
Joshua Inserra Melbourne Victory Actif 89 / 80 40% 6 12.04.2027 -
Fabian Talladira Adelaide United Actif 87 / 78 40% 3 11.04.2027 -
Setareki Hughes Rewa Actif 72 / 62 40% 2 08.04.2027 -
Hamoudi Kalaily Bnei Sakhnin Actif 69 / 66 40% 3 06.04.2027 -
Sibongakonke Nkosi Metallurg Actif 54 / 79 40% 1 06.04.2027 -
Peceli Sukabula Ba Actif 57 / 54 40% 1 29.03.2027 -
Askhat Nuserbayev Akzhaiyk Actif 59 / 48 40% 1 17.03.2027 -
Richard Nkomo Newcastle Jets Actif 75 / 80 40% 5 15.03.2027 -
Masahito Ono Nagoya Grampus Actif 77 / 78 40% 2 15.03.2027 -
Matthew Charitar Navua Actif 46 / 65 40% 1 09.03.2027 -
Jurato Ikeda Avispa Fukuoka Actif 68 / 83 40% 1 26.02.2027 -
Adam Bell Auckland City Actif 63 / 68 40% 3 25.02.2027 -
Samuel Segun Lautoka Actif 65 / 69 40% 1 25.02.2027 -
Bill Van Hattum Canterbury United Actif 58 / 57 40% 1 23.02.2027 -
Kristian Popovic Central Coast Mariners Actif 84 / 83 40% 1 20.02.2027 -
Victor Campos Bnei Yehuda Actif 54 / 91 40% 1 09.02.2027 -
Iowane Matanisiga Labasa Actif 52 / 57 40% 1 06.02.2027 -
Javohir Ubaydullayev Nasaf Actif 72 / 87 40% 1 03.02.2027 -
Daichi Suzuki Sagan Tosu Actif 85 / 79 40% 4 01.02.2027 -
Chris Donnell Central Coast Mariners Actif 88 / 90 40% 1 25.01.2027 -
Zafarbek Akramov Mashal Actif 69 / 74 40% 1 16.01.2027 -
Paris Domfeh Auckland City Actif 74 / 66 40% 1 16.01.2027 -
Tokumo Kawai Jubilo Iwata Actif 76 / 82 40% 1 15.01.2027 -
Dhayfallah Kadri PSIM Actif 71 / 65 40% 1 11.01.2027 -
Sulton Rahmatov Qizilqum Actif 50 / 75 40% 1 07.01.2027 -
Iosefo Verevou Tailevu Naitasiri Actif 71 / 64 40% 1 06.01.2027 -
Liam Karagula Maccabi Haifa Actif 85 / 87 40% 5 28.12.2026 -
Asilbek Anvarov Shortan Actif 80 / 60 40% 1 24.12.2026 -
Chris Payne WaiBOP United Actif 51 / 55 40% 2 13.12.2026 -
Saar Elkayam Hapoel Haifa Actif 68 / 88 40% 1 09.12.2026 -
Beni Feldman Maccabi Netanya Actif 60 / 86 40% 1 09.12.2026 -
Cameron Tuiloma Canterbury United Actif 50 / 71 40% 1 08.12.2026 -
Roy Buganim Hapoel Kfar Saba Actif 51 / 72 40% 1 07.12.2026 -
Davron To'laganov Pakhtakor Actif 61 / 77 40% 2 04.12.2026 -
Abdul Rahman PSM Actif 59 / 69 40% 2 23.11.2026 -
Kishan Sami Ba Actif 80 / 71 40% 1 16.11.2026 -
Shodiyor Shodiboyev Lokomotiv Actif 79 / 99 40% 1 13.11.2026 -
Zachary De Jesus Sydney FC Actif 81 / 94 40% 2 31.10.2026 -
Ryan McCowatt Hawke's Bay United Actif 68 / 71 40% 1 30.10.2026 -
Epeli Leiroti Lautoka Actif 70 / 60 40% 1 28.10.2026 -
Rahul Naresh Ba Actif 52 / 55 40% 1 22.10.2026 -
Reef Amsalem Hapoel Acre Actif 80 / 69 40% 1 16.10.2026 -
Josaia Sela Rewa Actif 52 / 78 40% 3 05.10.2026 -
Tim Van Hattum Canterbury United Actif 75 / 58 40% 1 03.10.2026 -
Ulug'bek Xoliqov Shortan Actif 60 / 69 40% 1 03.10.2026 -
Jordan Vale Team Wellington Actif 75 / 62 40% 1 29.09.2026 -
Michael Waine Southern United Actif 71 / 73 40% 1 24.09.2026 -
Tim Cacace Hawke's Bay United Actif 60 / 51 40% 1 17.09.2026 -
Rayhan Utina Borneo Actif 65 / 44 40% 1 16.09.2026 -
Hayata Ishii Vegalta Sendai Actif 67 / 75 40% 1 14.09.2026 -
Alex Stamatelopoulos Waitakere United Actif 76 / 76 40% 2 07.09.2026 -
Mihiro Sato Kashima Antlers Actif 82 / 72 40% 1 05.09.2026 -
Sikeli Tuiloma Tailevu Naitasiri Actif 56 / 47 40% 1 02.09.2026 -
Jubayer Bushnak Bnei Sakhnin Actif 98 / 69 40% 1 23.08.2026 -
Muhriddin Fazliddinov Kokand 1912 Actif 66 / 82 40% 1 21.08.2026 -
Ulug'bek Sunnatov Shortan Actif 87 / 77 40% 1 20.08.2026 -
Syahrul Lasinari PSM Actif 56 / 87 40% 1 19.08.2026 -
Dimas Roni Saputra Semen Padang Actif 76 / 70 40% 1 05.08.2026 -
Shalev Gindi Bnei Yehuda Actif 50 / 56 40% 1 04.08.2026 -
Dony Tri Pamungkas Persija Actif 92 / 79 40% 1 04.08.2026 -
Dias Lesbek Taraz Actif 86 / 69 40% 1 02.08.2026 -
Yoyo Aviv Maccabi Tel Aviv Actif 56 / 84 40% 1 02.08.2026 -
Shaker Abu Husein Bnei Sakhnin Actif 88 / 90 40% 1 02.08.2026 -
Farhod Rahmatov Qizilqum Actif 75 / 99 40% 1 01.08.2026 -